sensor_id;sensor_type;location;lat;lon;timestamp;P1;durP1;ratioP1;P2;durP2;ratioP2
18265;SDS011;9259;48.194;16.322;2023-08-30T00:02:13;2.67;;;1.90;;
18265;SDS011;9259;48.194;16.322;2023-08-30T00:07:09;1.77;;;1.50;;
18265;SDS011;9259;48.194;16.322;2023-08-30T00:09:38;4.38;;;1.90;;
18265;SDS011;9259;48.194;16.322;2023-08-30T00:12:06;2.78;;;1.90;;
18265;SDS011;9259;48.194;16.322;2023-08-30T00:14:35;2.60;;;1.70;;
18265;SDS011;9259;48.194;16.322;2023-08-30T00:17:03;3.17;;;1.83;;
18265;SDS011;9259;48.194;16.322;2023-08-30T00:19:31;3.42;;;2.15;;
18265;SDS011;9259;48.194;16.322;2023-08-30T00:21:59;2.97;;;1.77;;
18265;SDS011;9259;48.194;16.322;2023-08-30T00:24:27;3.15;;;1.92;;
18265;SDS011;9259;48.194;16.322;2023-08-30T00:26:56;2.80;;;1.90;;
18265;SDS011;9259;48.194;16.322;2023-08-30T00:29:24;2.50;;;1.63;;
18265;SDS011;9259;48.194;16.322;2023-08-30T00:31:52;3.95;;;1.65;;
18265;SDS011;9259;48.194;16.322;2023-08-30T00:34:21;2.05;;;1.63;;
18265;SDS011;9259;48.194;16.322;2023-08-30T00:36:49;3.50;;;1.80;;
18265;SDS011;9259;48.194;16.322;2023-08-30T00:39:17;2.75;;;1.30;;
18265;SDS011;9259;48.194;16.322;2023-08-30T00:41:45;2.55;;;1.60;;
18265;SDS011;9259;48.194;16.322;2023-08-30T00:44:14;2.60;;;1.80;;
18265;SDS011;9259;48.194;16.322;2023-08-30T00:46:42;2.92;;;1.90;;
18265;SDS011;9259;48.194;16.322;2023-08-30T00:49:10;3.05;;;1.73;;
18265;SDS011;9259;48.194;16.322;2023-08-30T00:51:38;2.20;;;1.63;;
18265;SDS011;9259;48.194;16.322;2023-08-30T00:54:06;3.95;;;1.67;;
18265;SDS011;9259;48.194;16.322;2023-08-30T00:56:34;1.83;;;1.58;;
18265;SDS011;9259;48.194;16.322;2023-08-30T00:59:03;2.42;;;1.67;;
18265;SDS011;9259;48.194;16.322;2023-08-30T01:01:32;2.85;;;1.60;;
18265;SDS011;9259;48.194;16.322;2023-08-30T01:04:00;1.70;;;1.40;;
18265;SDS011;9259;48.194;16.322;2023-08-30T01:06:28;3.15;;;1.70;;
18265;SDS011;9259;48.194;16.322;2023-08-30T01:08:56;2.30;;;1.70;;
18265;SDS011;9259;48.194;16.322;2023-08-30T01:11:26;2.22;;;1.60;;
18265;SDS011;9259;48.194;16.322;2023-08-30T01:14:00;1.88;;;1.52;;
18265;SDS011;9259;48.194;16.322;2023-08-30T01:16:30;2.92;;;1.50;;
18265;SDS011;9259;48.194;16.322;2023-08-30T01:19:00;3.03;;;1.67;;
18265;SDS011;9259;48.194;16.322;2023-08-30T01:21:33;2.13;;;1.30;;
18265;SDS011;9259;48.194;16.322;2023-08-30T01:24:09;1.67;;;1.40;;
18265;SDS011;9259;48.194;16.322;2023-08-30T01:26:44;2.25;;;1.63;;
18265;SDS011;9259;48.194;16.322;2023-08-30T01:29:22;1.85;;;1.30;;
18265;SDS011;9259;48.194;16.322;2023-08-30T01:31:51;2.10;;;1.45;;
18265;SDS011;9259;48.194;16.322;2023-08-30T01:34:20;1.60;;;1.30;;
18265;SDS011;9259;48.194;16.322;2023-08-30T01:36:49;3.92;;;1.60;;
18265;SDS011;9259;48.194;16.322;2023-08-30T01:39:17;3.63;;;1.55;;
18265;SDS011;9259;48.194;16.322;2023-08-30T01:41:45;3.08;;;1.75;;
18265;SDS011;9259;48.194;16.322;2023-08-30T01:44:13;1.73;;;1.50;;
18265;SDS011;9259;48.194;16.322;2023-08-30T01:46:43;1.80;;;1.35;;
18265;SDS011;9259;48.194;16.322;2023-08-30T01:49:12;2.85;;;1.50;;
18265;SDS011;9259;48.194;16.322;2023-08-30T01:51:41;7.22;;;1.65;;
18265;SDS011;9259;48.194;16.322;2023-08-30T01:54:09;2.08;;;1.30;;
18265;SDS011;9259;48.194;16.322;2023-08-30T01:56:37;2.53;;;1.73;;
18265;SDS011;9259;48.194;16.322;2023-08-30T01:59:05;3.20;;;1.40;;
18265;SDS011;9259;48.194;16.322;2023-08-30T02:01:33;2.92;;;1.92;;
18265;SDS011;9259;48.194;16.322;2023-08-30T02:04:03;1.98;;;1.50;;
18265;SDS011;9259;48.194;16.322;2023-08-30T02:06:31;2.15;;;1.52;;
18265;SDS011;9259;48.194;16.322;2023-08-30T02:09:04;2.13;;;1.55;;
18265;SDS011;9259;48.194;16.322;2023-08-30T02:11:39;1.77;;;1.58;;
18265;SDS011;9259;48.194;16.322;2023-08-30T02:14:08;3.13;;;1.55;;
18265;SDS011;9259;48.194;16.322;2023-08-30T02:16:38;2.13;;;1.80;;
18265;SDS011;9259;48.194;16.322;2023-08-30T02:19:08;2.33;;;1.50;;
18265;SDS011;9259;48.194;16.322;2023-08-30T02:21:36;2.30;;;1.70;;
18265;SDS011;9259;48.194;16.322;2023-08-30T02:24:06;2.03;;;1.50;;
18265;SDS011;9259;48.194;16.322;2023-08-30T02:26:34;2.45;;;1.88;;
18265;SDS011;9259;48.194;16.322;2023-08-30T02:29:03;2.92;;;1.83;;
18265;SDS011;9259;48.194;16.322;2023-08-30T02:31:31;4.13;;;2.13;;
18265;SDS011;9259;48.194;16.322;2023-08-30T02:33:59;4.00;;;2.10;;
18265;SDS011;9259;48.194;16.322;2023-08-30T02:36:29;3.15;;;1.98;;
18265;SDS011;9259;48.194;16.322;2023-08-30T02:38:57;3.20;;;2.13;;
18265;SDS011;9259;48.194;16.322;2023-08-30T02:41:25;4.50;;;2.08;;
18265;SDS011;9259;48.194;16.322;2023-08-30T02:43:53;5.55;;;2.28;;
18265;SDS011;9259;48.194;16.322;2023-08-30T02:46:21;3.75;;;2.10;;
18265;SDS011;9259;48.194;16.322;2023-08-30T02:48:49;2.95;;;1.95;;
18265;SDS011;9259;48.194;16.322;2023-08-30T02:51:17;2.92;;;2.00;;
18265;SDS011;9259;48.194;16.322;2023-08-30T02:53:46;3.20;;;2.08;;
18265;SDS011;9259;48.194;16.322;2023-08-30T02:56:14;3.50;;;2.28;;
18265;SDS011;9259;48.194;16.322;2023-08-30T02:58:42;3.90;;;1.80;;
18265;SDS011;9259;48.194;16.322;2023-08-30T03:01:11;4.30;;;2.40;;
18265;SDS011;9259;48.194;16.322;2023-08-30T03:03:39;4.22;;;2.03;;
18265;SDS011;9259;48.194;16.322;2023-08-30T03:06:07;4.88;;;2.35;;
18265;SDS011;9259;48.194;16.322;2023-08-30T03:08:35;2.95;;;2.00;;
18265;SDS011;9259;48.194;16.322;2023-08-30T03:11:11;3.00;;;1.80;;
18265;SDS011;9259;48.194;16.322;2023-08-30T03:13:39;3.78;;;2.13;;
18265;SDS011;9259;48.194;16.322;2023-08-30T03:16:11;3.38;;;2.13;;
18265;SDS011;9259;48.194;16.322;2023-08-30T03:18:39;3.47;;;1.95;;
18265;SDS011;9259;48.194;16.322;2023-08-30T03:21:07;2.00;;;1.63;;
18265;SDS011;9259;48.194;16.322;2023-08-30T03:23:36;2.70;;;1.70;;
18265;SDS011;9259;48.194;16.322;2023-08-30T03:26:08;4.47;;;2.00;;
18265;SDS011;9259;48.194;16.322;2023-08-30T03:28:38;4.43;;;1.90;;
18265;SDS011;9259;48.194;16.322;2023-08-30T03:31:13;3.78;;;1.58;;
18265;SDS011;9259;48.194;16.322;2023-08-30T03:33:41;2.38;;;1.75;;
18265;SDS011;9259;48.194;16.322;2023-08-30T03:36:10;2.40;;;1.45;;
18265;SDS011;9259;48.194;16.322;2023-08-30T03:38:38;2.00;;;1.40;;
18265;SDS011;9259;48.194;16.322;2023-08-30T03:41:07;1.98;;;1.40;;
18265;SDS011;9259;48.194;16.322;2023-08-30T03:43:37;1.77;;;1.30;;
18265;SDS011;9259;48.194;16.322;2023-08-30T03:46:05;2.42;;;1.25;;
18265;SDS011;9259;48.194;16.322;2023-08-30T03:48:34;1.58;;;1.10;;
18265;SDS011;9259;48.194;16.322;2023-08-30T03:51:03;3.22;;;1.38;;
18265;SDS011;9259;48.194;16.322;2023-08-30T03:53:31;2.05;;;1.40;;
18265;SDS011;9259;48.194;16.322;2023-08-30T03:55:59;2.25;;;1.48;;
18265;SDS011;9259;48.194;16.322;2023-08-30T03:58:27;2.20;;;1.40;;
18265;SDS011;9259;48.194;16.322;2023-08-30T04:00:57;2.75;;;1.73;;
18265;SDS011;9259;48.194;16.322;2023-08-30T04:03:25;3.03;;;1.83;;
18265;SDS011;9259;48.194;16.322;2023-08-30T04:05:56;2.35;;;1.30;;
18265;SDS011;9259;48.194;16.322;2023-08-30T04:08:24;2.40;;;1.60;;
18265;SDS011;9259;48.194;16.322;2023-08-30T04:10:52;2.97;;;2.20;;
18265;SDS011;9259;48.194;16.322;2023-08-30T04:13:21;3.28;;;1.90;;
18265;SDS011;9259;48.194;16.322;2023-08-30T04:15:49;2.65;;;1.95;;
18265;SDS011;9259;48.194;16.322;2023-08-30T04:18:19;4.20;;;2.20;;
18265;SDS011;9259;48.194;16.322;2023-08-30T04:20:47;3.05;;;2.15;;
18265;SDS011;9259;48.194;16.322;2023-08-30T04:23:15;3.80;;;2.42;;
18265;SDS011;9259;48.194;16.322;2023-08-30T04:25:43;4.25;;;2.20;;
18265;SDS011;9259;48.194;16.322;2023-08-30T04:28:11;2.78;;;1.92;;
18265;SDS011;9259;48.194;16.322;2023-08-30T04:30:39;2.72;;;2.00;;
18265;SDS011;9259;48.194;16.322;2023-08-30T04:33:07;3.72;;;2.28;;
18265;SDS011;9259;48.194;16.322;2023-08-30T04:35:37;3.40;;;2.30;;
18265;SDS011;9259;48.194;16.322;2023-08-30T04:38:05;2.67;;;2.08;;
18265;SDS011;9259;48.194;16.322;2023-08-30T04:40:33;3.08;;;2.05;;
18265;SDS011;9259;48.194;16.322;2023-08-30T04:43:01;3.58;;;2.30;;
18265;SDS011;9259;48.194;16.322;2023-08-30T04:45:29;2.47;;;2.05;;
18265;SDS011;9259;48.194;16.322;2023-08-30T04:47:57;2.78;;;2.20;;
18265;SDS011;9259;48.194;16.322;2023-08-30T04:50:25;3.53;;;2.40;;
18265;SDS011;9259;48.194;16.322;2023-08-30T04:52:54;3.85;;;2.53;;
18265;SDS011;9259;48.194;16.322;2023-08-30T04:55:24;3.50;;;2.22;;
18265;SDS011;9259;48.194;16.322;2023-08-30T04:57:52;3.70;;;2.40;;
18265;SDS011;9259;48.194;16.322;2023-08-30T05:00:20;3.28;;;2.10;;
18265;SDS011;9259;48.194;16.322;2023-08-30T05:02:49;3.17;;;2.30;;
18265;SDS011;9259;48.194;16.322;2023-08-30T05:05:17;4.22;;;2.35;;
18265;SDS011;9259;48.194;16.322;2023-08-30T05:07:45;4.38;;;2.75;;
18265;SDS011;9259;48.194;16.322;2023-08-30T05:10:15;4.15;;;2.78;;
18265;SDS011;9259;48.194;16.322;2023-08-30T05:12:43;4.90;;;2.83;;
18265;SDS011;9259;48.194;16.322;2023-08-30T05:15:15;5.95;;;3.08;;
18265;SDS011;9259;48.194;16.322;2023-08-30T05:17:43;4.82;;;2.78;;
18265;SDS011;9259;48.194;16.322;2023-08-30T05:20:11;4.05;;;2.75;;
18265;SDS011;9259;48.194;16.322;2023-08-30T05:22:39;4.40;;;2.72;;
18265;SDS011;9259;48.194;16.322;2023-08-30T05:25:07;5.03;;;2.83;;
18265;SDS011;9259;48.194;16.322;2023-08-30T05:27:37;4.72;;;2.80;;
18265;SDS011;9259;48.194;16.322;2023-08-30T05:30:05;5.88;;;3.42;;
18265;SDS011;9259;48.194;16.322;2023-08-30T05:32:34;6.05;;;3.25;;
18265;SDS011;9259;48.194;16.322;2023-08-30T05:35:02;4.90;;;3.30;;
18265;SDS011;9259;48.194;16.322;2023-08-30T05:37:31;7.50;;;3.15;;
18265;SDS011;9259;48.194;16.322;2023-08-30T05:39:59;5.13;;;3.30;;
18265;SDS011;9259;48.194;16.322;2023-08-30T05:42:28;5.55;;;3.00;;
18265;SDS011;9259;48.194;16.322;2023-08-30T05:44:57;5.35;;;3.38;;
18265;SDS011;9259;48.194;16.322;2023-08-30T05:47:25;4.43;;;3.28;;
18265;SDS011;9259;48.194;16.322;2023-08-30T05:49:53;4.80;;;3.33;;
18265;SDS011;9259;48.194;16.322;2023-08-30T05:52:22;6.22;;;3.45;;
18265;SDS011;9259;48.194;16.322;2023-08-30T05:54:51;5.03;;;3.55;;
18265;SDS011;9259;48.194;16.322;2023-08-30T05:57:19;4.45;;;2.85;;
18265;SDS011;9259;48.194;16.322;2023-08-30T05:59:48;5.85;;;2.90;;
18265;SDS011;9259;48.194;16.322;2023-08-30T06:02:17;4.82;;;3.03;;
18265;SDS011;9259;48.194;16.322;2023-08-30T06:04:45;4.38;;;2.95;;
18265;SDS011;9259;48.194;16.322;2023-08-30T06:07:13;4.38;;;2.88;;
18265;SDS011;9259;48.194;16.322;2023-08-30T06:09:41;4.22;;;3.35;;
18265;SDS011;9259;48.194;16.322;2023-08-30T06:12:17;4.32;;;3.33;;
18265;SDS011;9259;48.194;16.322;2023-08-30T06:14:45;5.43;;;3.20;;
18265;SDS011;9259;48.194;16.322;2023-08-30T06:17:19;6.32;;;3.20;;
18265;SDS011;9259;48.194;16.322;2023-08-30T06:19:47;4.30;;;2.97;;
18265;SDS011;9259;48.194;16.322;2023-08-30T06:22:15;3.58;;;2.65;;
18265;SDS011;9259;48.194;16.322;2023-08-30T06:24:43;4.60;;;2.85;;
18265;SDS011;9259;48.194;16.322;2023-08-30T06:27:11;3.33;;;2.67;;
18265;SDS011;9259;48.194;16.322;2023-08-30T06:29:39;6.25;;;3.33;;
18265;SDS011;9259;48.194;16.322;2023-08-30T06:32:07;3.97;;;2.92;;
18265;SDS011;9259;48.194;16.322;2023-08-30T06:34:36;4.60;;;2.75;;
18265;SDS011;9259;48.194;16.322;2023-08-30T06:37:04;4.07;;;2.53;;
18265;SDS011;9259;48.194;16.322;2023-08-30T06:39:33;4.43;;;2.92;;
18265;SDS011;9259;48.194;16.322;2023-08-30T06:42:02;3.85;;;2.83;;
18265;SDS011;9259;48.194;16.322;2023-08-30T06:44:30;3.50;;;2.35;;
18265;SDS011;9259;48.194;16.322;2023-08-30T06:46:58;3.92;;;2.40;;
18265;SDS011;9259;48.194;16.322;2023-08-30T06:49:26;4.47;;;2.47;;
18265;SDS011;9259;48.194;16.322;2023-08-30T06:51:58;3.78;;;2.38;;
18265;SDS011;9259;48.194;16.322;2023-08-30T06:54:28;2.78;;;1.88;;
18265;SDS011;9259;48.194;16.322;2023-08-30T06:56:59;3.45;;;2.55;;
18265;SDS011;9259;48.194;16.322;2023-08-30T06:59:28;4.03;;;2.33;;
18265;SDS011;9259;48.194;16.322;2023-08-30T07:01:56;4.50;;;2.67;;
18265;SDS011;9259;48.194;16.322;2023-08-30T07:04:24;5.30;;;2.45;;
18265;SDS011;9259;48.194;16.322;2023-08-30T07:06:53;3.60;;;2.58;;
18265;SDS011;9259;48.194;16.322;2023-08-30T07:09:25;4.03;;;2.35;;
18265;SDS011;9259;48.194;16.322;2023-08-30T07:11:55;3.33;;;2.65;;
18265;SDS011;9259;48.194;16.322;2023-08-30T07:14:23;2.95;;;1.95;;
18265;SDS011;9259;48.194;16.322;2023-08-30T07:16:51;3.17;;;2.33;;
18265;SDS011;9259;48.194;16.322;2023-08-30T07:19:19;4.70;;;2.22;;
18265;SDS011;9259;48.194;16.322;2023-08-30T07:21:49;2.63;;;1.92;;
18265;SDS011;9259;48.194;16.322;2023-08-30T07:24:17;2.67;;;1.95;;
18265;SDS011;9259;48.194;16.322;2023-08-30T07:26:46;2.88;;;1.98;;
18265;SDS011;9259;48.194;16.322;2023-08-30T07:29:14;10.50;;;2.13;;
18265;SDS011;9259;48.194;16.322;2023-08-30T07:31:42;2.15;;;1.70;;
18265;SDS011;9259;48.194;16.322;2023-08-30T07:34:10;4.93;;;1.60;;
18265;SDS011;9259;48.194;16.322;2023-08-30T07:36:38;3.60;;;1.92;;
18265;SDS011;9259;48.194;16.322;2023-08-30T07:39:06;2.83;;;1.67;;
18265;SDS011;9259;48.194;16.322;2023-08-30T07:41:35;2.97;;;1.60;;
18265;SDS011;9259;48.194;16.322;2023-08-30T07:44:06;1.52;;;1.38;;
18265;SDS011;9259;48.194;16.322;2023-08-30T07:46:34;1.38;;;1.08;;
18265;SDS011;9259;48.194;16.322;2023-08-30T07:49:02;2.92;;;1.40;;
18265;SDS011;9259;48.194;16.322;2023-08-30T07:51:30;2.70;;;1.55;;
18265;SDS011;9259;48.194;16.322;2023-08-30T07:53:59;1.65;;;1.25;;
18265;SDS011;9259;48.194;16.322;2023-08-30T07:56:27;1.50;;;1.30;;
18265;SDS011;9259;48.194;16.322;2023-08-30T07:58:55;2.50;;;1.40;;
18265;SDS011;9259;48.194;16.322;2023-08-30T08:01:24;1.60;;;1.20;;
18265;SDS011;9259;48.194;16.322;2023-08-30T08:03:52;1.73;;;1.20;;
18265;SDS011;9259;48.194;16.322;2023-08-30T08:06:20;1.42;;;1.20;;
18265;SDS011;9259;48.194;16.322;2023-08-30T08:08:49;1.63;;;1.13;;
18265;SDS011;9259;48.194;16.322;2023-08-30T08:11:17;1.27;;;1.00;;
18265;SDS011;9259;48.194;16.322;2023-08-30T08:13:45;6.28;;;1.20;;
18265;SDS011;9259;48.194;16.322;2023-08-30T08:16:13;1.25;;;1.10;;
18265;SDS011;9259;48.194;16.322;2023-08-30T08:18:42;1.58;;;1.20;;
18265;SDS011;9259;48.194;16.322;2023-08-30T08:21:10;1.98;;;1.10;;
18265;SDS011;9259;48.194;16.322;2023-08-30T08:23:38;1.48;;;1.05;;
18265;SDS011;9259;48.194;16.322;2023-08-30T08:26:06;1.45;;;1.10;;
18265;SDS011;9259;48.194;16.322;2023-08-30T08:28:34;1.05;;;0.90;;
18265;SDS011;9259;48.194;16.322;2023-08-30T08:31:02;2.83;;;0.90;;
18265;SDS011;9259;48.194;16.322;2023-08-30T08:33:30;2.70;;;1.35;;
18265;SDS011;9259;48.194;16.322;2023-08-30T08:36:00;4.03;;;1.10;;
18265;SDS011;9259;48.194;16.322;2023-08-30T08:38:28;1.92;;;1.30;;
18265;SDS011;9259;48.194;16.322;2023-08-30T08:41:01;2.85;;;1.40;;
18265;SDS011;9259;48.194;16.322;2023-08-30T08:43:29;4.05;;;1.48;;
18265;SDS011;9259;48.194;16.322;2023-08-30T08:46:00;1.42;;;1.17;;
18265;SDS011;9259;48.194;16.322;2023-08-30T08:48:28;2.28;;;1.40;;
18265;SDS011;9259;48.194;16.322;2023-08-30T08:50:56;2.08;;;1.40;;
18265;SDS011;9259;48.194;16.322;2023-08-30T08:53:26;1.73;;;1.25;;
18265;SDS011;9259;48.194;16.322;2023-08-30T08:55:54;3.90;;;1.63;;
18265;SDS011;9259;48.194;16.322;2023-08-30T08:58:23;3.38;;;1.20;;
18265;SDS011;9259;48.194;16.322;2023-08-30T09:00:51;1.70;;;1.27;;
18265;SDS011;9259;48.194;16.322;2023-08-30T09:03:19;1.75;;;1.42;;
18265;SDS011;9259;48.194;16.322;2023-08-30T09:05:49;1.58;;;1.10;;
18265;SDS011;9259;48.194;16.322;2023-08-30T09:08:18;0.85;;;0.70;;
18265;SDS011;9259;48.194;16.322;2023-08-30T09:10:49;1.85;;;1.00;;
18265;SDS011;9259;48.194;16.322;2023-08-30T09:13:18;1.33;;;0.85;;
18265;SDS011;9259;48.194;16.322;2023-08-30T09:15:48;3.78;;;0.73;;
18265;SDS011;9259;48.194;16.322;2023-08-30T09:18:19;0.90;;;0.80;;
18265;SDS011;9259;48.194;16.322;2023-08-30T09:20:47;1.23;;;0.68;;
18265;SDS011;9259;48.194;16.322;2023-08-30T09:23:17;1.55;;;0.80;;
18265;SDS011;9259;48.194;16.322;2023-08-30T09:25:46;2.15;;;0.90;;
18265;SDS011;9259;48.194;16.322;2023-08-30T09:28:15;1.23;;;0.70;;
18265;SDS011;9259;48.194;16.322;2023-08-30T09:30:48;0.88;;;0.70;;
18265;SDS011;9259;48.194;16.322;2023-08-30T09:33:20;0.77;;;0.65;;
18265;SDS011;9259;48.194;16.322;2023-08-30T09:35:48;1.17;;;0.70;;
18265;SDS011;9259;48.194;16.322;2023-08-30T09:38:17;2.50;;;0.95;;
18265;SDS011;9259;48.194;16.322;2023-08-30T09:40:45;1.00;;;0.60;;
18265;SDS011;9259;48.194;16.322;2023-08-30T09:43:17;2.03;;;1.30;;
18265;SDS011;9259;48.194;16.322;2023-08-30T09:45:47;0.80;;;0.65;;
18265;SDS011;9259;48.194;16.322;2023-08-30T09:48:15;0.95;;;0.60;;
18265;SDS011;9259;48.194;16.322;2023-08-30T09:50:47;1.40;;;0.82;;
18265;SDS011;9259;48.194;16.322;2023-08-30T09:53:19;0.77;;;0.77;;
18265;SDS011;9259;48.194;16.322;2023-08-30T09:55:49;0.80;;;0.63;;
18265;SDS011;9259;48.194;16.322;2023-08-30T09:58:20;2.42;;;0.70;;
18265;SDS011;9259;48.194;16.322;2023-08-30T10:00:49;1.48;;;0.77;;
18265;SDS011;9259;48.194;16.322;2023-08-30T10:03:17;2.00;;;1.02;;
18265;SDS011;9259;48.194;16.322;2023-08-30T10:05:45;1.67;;;0.82;;
18265;SDS011;9259;48.194;16.322;2023-08-30T10:08:13;1.48;;;1.00;;
18265;SDS011;9259;48.194;16.322;2023-08-30T10:10:41;2.50;;;1.08;;
18265;SDS011;9259;48.194;16.322;2023-08-30T10:13:10;1.80;;;0.95;;
18265;SDS011;9259;48.194;16.322;2023-08-30T10:15:40;2.40;;;1.00;;
18265;SDS011;9259;48.194;16.322;2023-08-30T10:18:13;2.80;;;1.20;;
18265;SDS011;9259;48.194;16.322;2023-08-30T10:20:43;1.73;;;1.30;;
18265;SDS011;9259;48.194;16.322;2023-08-30T10:23:12;2.25;;;1.40;;
18265;SDS011;9259;48.194;16.322;2023-08-30T10:25:40;2.38;;;1.27;;
18265;SDS011;9259;48.194;16.322;2023-08-30T10:28:09;2.22;;;1.60;;
18265;SDS011;9259;48.194;16.322;2023-08-30T10:30:37;2.17;;;1.70;;
18265;SDS011;9259;48.194;16.322;2023-08-30T10:33:11;2.58;;;1.40;;
18265;SDS011;9259;48.194;16.322;2023-08-30T10:35:46;2.42;;;1.52;;
18265;SDS011;9259;48.194;16.322;2023-08-30T10:38:24;1.83;;;1.10;;
18265;SDS011;9259;48.194;16.322;2023-08-30T10:40:53;2.78;;;1.30;;
18265;SDS011;9259;48.194;16.322;2023-08-30T10:43:31;4.55;;;1.80;;
18265;SDS011;9259;48.194;16.322;2023-08-30T10:46:04;3.83;;;1.80;;
18265;SDS011;9259;48.194;16.322;2023-08-30T10:48:34;2.92;;;1.65;;
18265;SDS011;9259;48.194;16.322;2023-08-30T10:51:02;2.97;;;1.90;;
18265;SDS011;9259;48.194;16.322;2023-08-30T10:53:33;2.20;;;1.70;;
18265;SDS011;9259;48.194;16.322;2023-08-30T10:56:02;4.78;;;2.10;;
18265;SDS011;9259;48.194;16.322;2023-08-30T10:58:40;2.83;;;2.03;;
18265;SDS011;9259;48.194;16.322;2023-08-30T11:01:10;2.53;;;1.77;;
18265;SDS011;9259;48.194;16.322;2023-08-30T11:03:40;3.05;;;2.08;;
18265;SDS011;9259;48.194;16.322;2023-08-30T11:06:13;3.90;;;1.63;;
18265;SDS011;9259;48.194;16.322;2023-08-30T11:08:43;2.70;;;1.88;;
18265;SDS011;9259;48.194;16.322;2023-08-30T11:11:11;3.65;;;1.60;;
18265;SDS011;9259;48.194;16.322;2023-08-30T11:13:40;2.45;;;1.60;;
18265;SDS011;9259;48.194;16.322;2023-08-30T11:16:08;3.65;;;1.85;;
18265;SDS011;9259;48.194;16.322;2023-08-30T11:18:37;1.70;;;1.20;;
18265;SDS011;9259;48.194;16.322;2023-08-30T11:21:07;2.55;;;1.25;;
18265;SDS011;9259;48.194;16.322;2023-08-30T11:23:37;2.75;;;1.45;;
18265;SDS011;9259;48.194;16.322;2023-08-30T11:26:06;2.25;;;1.20;;
18265;SDS011;9259;48.194;16.322;2023-08-30T11:28:35;1.52;;;1.20;;
18265;SDS011;9259;48.194;16.322;2023-08-30T11:31:07;1.63;;;1.23;;
18265;SDS011;9259;48.194;16.322;2023-08-30T11:33:36;5.07;;;1.33;;
18265;SDS011;9259;48.194;16.322;2023-08-30T11:36:04;3.53;;;1.50;;
18265;SDS011;9259;48.194;16.322;2023-08-30T11:38:33;1.83;;;1.40;;
18265;SDS011;9259;48.194;16.322;2023-08-30T11:41:01;1.30;;;1.10;;
18265;SDS011;9259;48.194;16.322;2023-08-30T11:43:30;2.83;;;1.45;;
18265;SDS011;9259;48.194;16.322;2023-08-30T11:45:59;3.72;;;1.33;;
18265;SDS011;9259;48.194;16.322;2023-08-30T11:48:27;2.20;;;1.02;;
18265;SDS011;9259;48.194;16.322;2023-08-30T11:50:57;1.80;;;1.25;;
18265;SDS011;9259;48.194;16.322;2023-08-30T11:53:25;1.90;;;1.25;;
18265;SDS011;9259;48.194;16.322;2023-08-30T11:55:53;1.40;;;1.15;;
18265;SDS011;9259;48.194;16.322;2023-08-30T11:58:21;1.20;;;1.05;;
18265;SDS011;9259;48.194;16.322;2023-08-30T12:00:49;1.70;;;1.23;;
18265;SDS011;9259;48.194;16.322;2023-08-30T12:03:19;2.17;;;1.27;;
18265;SDS011;9259;48.194;16.322;2023-08-30T12:05:47;3.22;;;1.10;;
18265;SDS011;9259;48.194;16.322;2023-08-30T12:08:20;1.58;;;1.08;;
18265;SDS011;9259;48.194;16.322;2023-08-30T12:10:50;1.63;;;1.10;;
18265;SDS011;9259;48.194;16.322;2023-08-30T12:13:22;4.95;;;1.17;;
18265;SDS011;9259;48.194;16.322;2023-08-30T12:15:50;1.00;;;0.90;;
18265;SDS011;9259;48.194;16.322;2023-08-30T12:18:20;1.67;;;1.00;;
18265;SDS011;9259;48.194;16.322;2023-08-30T12:20:53;2.17;;;1.23;;
18265;SDS011;9259;48.194;16.322;2023-08-30T12:23:24;1.10;;;0.80;;
18265;SDS011;9259;48.194;16.322;2023-08-30T12:25:56;1.17;;;0.90;;
18265;SDS011;9259;48.194;16.322;2023-08-30T12:28:25;2.47;;;0.98;;
18265;SDS011;9259;48.194;16.322;2023-08-30T12:30:53;1.80;;;1.00;;
18265;SDS011;9259;48.194;16.322;2023-08-30T12:33:21;1.23;;;0.80;;
18265;SDS011;9259;48.194;16.322;2023-08-30T12:35:51;2.47;;;0.73;;
18265;SDS011;9259;48.194;16.322;2023-08-30T12:38:19;0.98;;;0.90;;
18265;SDS011;9259;48.194;16.322;2023-08-30T12:40:49;1.92;;;1.02;;
18265;SDS011;9259;48.194;16.322;2023-08-30T12:43:18;1.73;;;1.10;;
18265;SDS011;9259;48.194;16.322;2023-08-30T12:45:47;1.52;;;0.80;;
18265;SDS011;9259;48.194;16.322;2023-08-30T12:48:16;1.23;;;1.05;;
18265;SDS011;9259;48.194;16.322;2023-08-30T12:50:45;1.08;;;0.93;;
18265;SDS011;9259;48.194;16.322;2023-08-30T12:53:13;2.10;;;1.38;;
18265;SDS011;9259;48.194;16.322;2023-08-30T12:55:43;1.20;;;1.00;;
18265;SDS011;9259;48.194;16.322;2023-08-30T12:58:12;3.17;;;1.00;;
18265;SDS011;9259;48.194;16.322;2023-08-30T13:00:40;2.92;;;1.38;;
18265;SDS011;9259;48.194;16.322;2023-08-30T13:03:08;1.10;;;0.77;;
18265;SDS011;9259;48.194;16.322;2023-08-30T13:05:36;1.17;;;0.80;;
18265;SDS011;9259;48.194;16.322;2023-08-30T13:08:05;0.80;;;0.68;;
18265;SDS011;9259;48.194;16.322;2023-08-30T13:10:33;0.95;;;0.60;;
18265;SDS011;9259;48.194;16.322;2023-08-30T13:13:01;2.45;;;0.90;;
18265;SDS011;9259;48.194;16.322;2023-08-30T13:15:31;2.78;;;0.73;;
18265;SDS011;9259;48.194;16.322;2023-08-30T13:17:59;1.50;;;0.90;;
18265;SDS011;9259;48.194;16.322;2023-08-30T13:20:27;2.45;;;0.60;;
18265;SDS011;9259;48.194;16.322;2023-08-30T13:22:56;2.00;;;0.80;;
18265;SDS011;9259;48.194;16.322;2023-08-30T13:25:24;1.83;;;0.63;;
18265;SDS011;9259;48.194;16.322;2023-08-30T13:27:53;2.30;;;0.82;;
18265;SDS011;9259;48.194;16.322;2023-08-30T13:30:21;1.10;;;0.82;;
18265;SDS011;9259;48.194;16.322;2023-08-30T13:32:52;0.70;;;0.70;;
18265;SDS011;9259;48.194;16.322;2023-08-30T13:35:21;1.42;;;0.93;;
18265;SDS011;9259;48.194;16.322;2023-08-30T13:37:50;1.10;;;0.80;;
18265;SDS011;9259;48.194;16.322;2023-08-30T13:40:18;1.20;;;0.80;;
18265;SDS011;9259;48.194;16.322;2023-08-30T13:42:47;1.48;;;0.80;;
18265;SDS011;9259;48.194;16.322;2023-08-30T13:45:16;2.35;;;0.90;;
18265;SDS011;9259;48.194;16.322;2023-08-30T13:47:45;1.48;;;0.75;;
18265;SDS011;9259;48.194;16.322;2023-08-30T13:50:19;2.83;;;0.88;;
18265;SDS011;9259;48.194;16.322;2023-08-30T13:52:48;2.30;;;0.73;;
18265;SDS011;9259;48.194;16.322;2023-08-30T13:55:18;1.10;;;0.80;;
18265;SDS011;9259;48.194;16.322;2023-08-30T13:57:47;1.38;;;0.90;;
18265;SDS011;9259;48.194;16.322;2023-08-30T14:00:17;0.82;;;0.80;;
18265;SDS011;9259;48.194;16.322;2023-08-30T14:02:46;1.77;;;0.70;;
18265;SDS011;9259;48.194;16.322;2023-08-30T14:05:15;1.38;;;0.68;;
18265;SDS011;9259;48.194;16.322;2023-08-30T14:07:45;2.28;;;0.68;;
18265;SDS011;9259;48.194;16.322;2023-08-30T14:10:13;2.88;;;0.90;;
18265;SDS011;9259;48.194;16.322;2023-08-30T14:12:45;3.65;;;0.80;;
18265;SDS011;9259;48.194;16.322;2023-08-30T14:15:14;0.93;;;0.70;;
18265;SDS011;9259;48.194;16.322;2023-08-30T14:17:43;1.58;;;0.63;;
18265;SDS011;9259;48.194;16.322;2023-08-30T14:20:11;1.85;;;0.80;;
18265;SDS011;9259;48.194;16.322;2023-08-30T14:22:40;2.45;;;0.98;;
18265;SDS011;9259;48.194;16.322;2023-08-30T14:25:10;1.40;;;0.98;;
18265;SDS011;9259;48.194;16.322;2023-08-30T14:27:38;2.25;;;0.90;;
18265;SDS011;9259;48.194;16.322;2023-08-30T14:30:07;1.88;;;1.08;;
18265;SDS011;9259;48.194;16.322;2023-08-30T14:32:37;2.40;;;0.90;;
18265;SDS011;9259;48.194;16.322;2023-08-30T14:35:06;0.73;;;0.70;;
18265;SDS011;9259;48.194;16.322;2023-08-30T14:37:37;1.08;;;0.75;;
18265;SDS011;9259;48.194;16.322;2023-08-30T14:40:07;1.00;;;0.82;;
18265;SDS011;9259;48.194;16.322;2023-08-30T14:42:39;1.20;;;0.88;;
18265;SDS011;9259;48.194;16.322;2023-08-30T14:45:08;2.17;;;0.95;;
18265;SDS011;9259;48.194;16.322;2023-08-30T14:47:38;1.98;;;0.70;;
18265;SDS011;9259;48.194;16.322;2023-08-30T14:50:11;1.88;;;0.88;;
18265;SDS011;9259;48.194;16.322;2023-08-30T14:52:41;1.42;;;0.90;;
18265;SDS011;9259;48.194;16.322;2023-08-30T14:55:12;1.52;;;0.88;;
18265;SDS011;9259;48.194;16.322;2023-08-30T14:57:42;2.88;;;0.80;;
18265;SDS011;9259;48.194;16.322;2023-08-30T15:00:11;1.10;;;0.90;;
18265;SDS011;9259;48.194;16.322;2023-08-30T15:02:41;1.05;;;0.73;;